createdAt,value
2022-08-08T00:01:12.395Z,6.37
2022-08-08T00:04:04.965Z,5.73
2022-08-08T00:06:49.684Z,8.17
2022-08-08T00:09:16.733Z,5.63
2022-08-08T00:12:12.748Z,5.97
2022-08-08T00:14:59.578Z,6.80
2022-08-08T00:18:01.688Z,7.10
2022-08-08T00:20:54.380Z,6.10
2022-08-08T00:23:51.356Z,7.37
2022-08-08T00:26:30.105Z,7.03
2022-08-08T00:29:07.867Z,6.57
2022-08-08T00:32:16.426Z,6.33
2022-08-08T00:35:06.839Z,6.07
2022-08-08T00:38:31.358Z,5.80
2022-08-08T00:41:45.225Z,7.10
2022-08-08T00:44:51.130Z,6.13
2022-08-08T00:48:04.876Z,6.70
2022-08-08T00:51:03.297Z,6.27
2022-08-08T00:54:13.677Z,6.63
2022-08-08T00:57:19.749Z,8.30
2022-08-08T01:00:08.644Z,7.67
2022-08-08T01:03:58.681Z,9.90
2022-08-08T01:06:29.867Z,8.33
2022-08-08T01:09:41.572Z,7.33
2022-08-08T01:12:46.684Z,8.43
2022-08-08T01:15:47.337Z,6.83
2022-08-08T01:18:53.017Z,8.37
2022-08-08T01:22:12.119Z,6.63
2022-08-08T01:25:08.333Z,7.47
2022-08-08T01:27:44.402Z,6.40
2022-08-08T01:30:54.351Z,7.83
2022-08-08T01:33:33.906Z,6.93
2022-08-08T01:36:36.011Z,10.83
2022-08-08T01:39:34.951Z,7.03
2022-08-08T01:42:35.870Z,8.37
2022-08-08T01:45:22.726Z,7.73
2022-08-08T01:48:30.702Z,7.13
2022-08-08T01:51:31.592Z,6.27
2022-08-08T01:55:46.330Z,8.23
2022-08-08T01:58:10.706Z,7.17
2022-08-08T02:01:15.707Z,7.10
2022-08-08T02:04:01.897Z,9.43
2022-08-08T02:06:57.172Z,7.73
2022-08-08T02:10:02.454Z,8.70
2022-08-08T02:12:49.959Z,8.40
2022-08-08T02:15:38.492Z,8.03
2022-08-08T02:18:26.651Z,8.00
2022-08-08T02:21:26.478Z,9.20
2022-08-08T02:24:19.932Z,8.07
2022-08-08T02:27:02.454Z,6.80
2022-08-08T02:30:03.456Z,8.13
2022-08-08T02:32:53.258Z,8.70
2022-08-08T02:36:04.322Z,6.50
2022-08-08T02:38:44.837Z,7.20
2022-08-08T02:42:04.284Z,7.73
2022-08-08T02:44:57.239Z,6.83
2022-08-08T02:48:07.226Z,8.10
2022-08-08T02:51:30.491Z,6.77
2022-08-08T02:54:37.809Z,7.83
2022-08-08T02:57:44.440Z,7.23
2022-08-08T03:00:33.779Z,8.40
2022-08-08T03:05:01.009Z,8.43
2022-08-08T03:06:50.446Z,7.80
2022-08-08T03:09:55.029Z,6.97
2022-08-08T03:13:01.175Z,8.77
2022-08-08T03:16:05.864Z,9.33
2022-08-08T03:18:48.860Z,7.27
2022-08-08T03:21:18.609Z,9.67
2022-08-08T03:23:57.427Z,8.27
2022-08-08T03:26:42.659Z,8.73
2022-08-08T03:29:18.695Z,8.30
2022-08-08T03:32:14.322Z,8.93
2022-08-08T03:34:41.134Z,9.70
2022-08-08T03:37:58.842Z,9.93
2022-08-08T03:40:10.792Z,9.30
2022-08-08T03:42:53.665Z,8.20
2022-08-08T03:46:07.481Z,8.80
2022-08-08T03:48:20.787Z,8.43
2022-08-08T03:51:07.015Z,9.10
2022-08-08T03:53:42.246Z,9.13
2022-08-08T03:56:31.924Z,11.90
2022-08-08T03:59:04.489Z,9.17
2022-08-08T04:02:13.012Z,8.23
2022-08-08T04:04:31.209Z,9.00
2022-08-08T04:07:00.883Z,10.50
2022-08-08T04:09:58.925Z,9.93
2022-08-08T04:12:22.699Z,9.97
2022-08-08T04:14:50.841Z,10.97
2022-08-08T04:17:45.969Z,10.73
2022-08-08T04:20:09.364Z,10.07
2022-08-08T04:22:36.758Z,11.37
2022-08-08T04:25:06.202Z,8.70
2022-08-08T04:28:02.535Z,12.43
2022-08-08T04:30:23.122Z,9.40
2022-08-08T04:32:52.954Z,10.20
2022-08-08T04:35:29.428Z,9.97
2022-08-08T04:37:59.806Z,10.10
2022-08-08T04:40:38.748Z,12.20
2022-08-08T04:43:05.559Z,11.17
2022-08-08T04:45:39.907Z,10.00
2022-08-08T04:48:07.646Z,9.20
2022-08-08T04:50:37.925Z,9.00
2022-08-08T04:53:52.070Z,8.80
2022-08-08T04:55:59.173Z,10.07
2022-08-08T04:58:30.197Z,9.73
2022-08-08T05:00:58.329Z,10.00
2022-08-08T05:04:09.919Z,9.30
2022-08-08T05:06:25.327Z,8.97
2022-08-08T05:08:53.144Z,10.70
2022-08-08T05:11:24.529Z,9.90
2022-08-08T05:14:01.327Z,10.00
2022-08-08T05:16:54.930Z,9.77
2022-08-08T05:20:09.656Z,10.30
2022-08-08T05:22:10.798Z,10.20
2022-08-08T05:24:41.911Z,10.30
2022-08-08T05:27:15.779Z,11.37
2022-08-08T05:29:42.450Z,14.17
2022-08-08T05:32:10.008Z,11.27
2022-08-08T05:34:49.237Z,10.57
2022-08-08T05:37:23.291Z,11.33
2022-08-08T05:40:07.311Z,10.10
2022-08-08T05:42:45.176Z,12.13
2022-08-08T05:45:25.500Z,9.87
2022-08-08T05:48:09.058Z,9.67
2022-08-08T05:50:38.757Z,10.67
2022-08-08T05:53:53.612Z,11.93
2022-08-08T05:56:11.656Z,11.17
2022-08-08T05:58:53.873Z,12.30
2022-08-08T06:01:56.777Z,11.77
2022-08-08T06:04:23.804Z,13.70
2022-08-08T06:06:54.036Z,12.53
2022-08-08T06:09:58.230Z,15.03
2022-08-08T06:12:18.478Z,12.77
2022-08-08T06:14:47.803Z,11.27
2022-08-08T06:17:21.107Z,11.63
2022-08-08T06:20:11.614Z,11.43
2022-08-08T06:22:42.251Z,11.10
2022-08-08T06:25:15.413Z,12.90
2022-08-08T06:27:50.590Z,11.47
2022-08-08T06:30:28.375Z,12.63
2022-08-08T06:33:01.380Z,10.60
2022-08-08T06:36:08.417Z,13.33
2022-08-08T06:38:29.027Z,10.33
2022-08-08T06:41:05.279Z,10.83
2022-08-08T06:43:36.211Z,9.43
2022-08-08T06:46:08.719Z,8.07
2022-08-08T06:48:36.440Z,9.23
2022-08-08T06:51:08.437Z,11.97
2022-08-08T06:53:39.251Z,8.47
2022-08-08T06:56:08.968Z,9.53
2022-08-08T06:58:36.869Z,8.17
2022-08-08T07:02:16.153Z,11.03
2022-08-08T07:04:35.555Z,9.00
2022-08-08T07:06:59.559Z,8.47
2022-08-08T07:09:41.470Z,8.33
2022-08-08T07:12:30.498Z,7.20
2022-08-08T07:15:06.408Z,6.27
2022-08-08T07:18:01.775Z,6.97
2022-08-08T07:20:50.534Z,9.23
2022-08-08T07:23:57.635Z,6.03
2022-08-08T07:26:28.937Z,6.80
2022-08-08T07:29:05.526Z,7.83
2022-08-08T07:31:35.911Z,7.77
2022-08-08T07:34:09.013Z,8.13
2022-08-08T07:37:12.087Z,7.43
2022-08-08T07:39:45.856Z,6.20
2022-08-08T07:42:33.315Z,6.30
2022-08-08T07:45:07.473Z,7.77
2022-08-08T07:47:39.698Z,5.73
2022-08-08T07:50:12.517Z,8.77
2022-08-08T07:52:47.214Z,6.23
2022-08-08T07:55:28.556Z,5.93
2022-08-08T07:58:28.432Z,5.67
2022-08-08T08:01:02.060Z,5.50
2022-08-08T08:03:41.281Z,5.97
2022-08-08T08:06:14.239Z,6.03
2022-08-08T08:09:10.687Z,6.80
2022-08-08T08:11:52.534Z,8.13
2022-08-08T08:14:46.362Z,5.27
2022-08-08T08:17:18.384Z,6.20
2022-08-08T08:19:50.453Z,5.37
2022-08-08T08:22:31.507Z,6.07
2022-08-08T08:25:08.130Z,6.13
2022-08-08T08:27:36.968Z,5.17
2022-08-08T08:30:05.861Z,6.13
2022-08-08T08:32:36.528Z,7.70
2022-08-08T08:35:08.924Z,5.30
2022-08-08T08:37:53.016Z,5.27
2022-08-08T08:40:26.303Z,4.80
2022-08-08T08:42:55.764Z,7.17
2022-08-08T08:45:26.496Z,5.77
2022-08-08T08:48:01.052Z,6.63
2022-08-08T08:50:35.591Z,6.00
2022-08-08T08:53:27.340Z,5.27
2022-08-08T08:56:06.906Z,6.00
2022-08-08T08:58:42.892Z,4.60
2022-08-08T09:01:15.639Z,5.27
2022-08-08T09:03:50.503Z,7.03
2022-08-08T09:06:34.265Z,5.70
2022-08-08T09:09:35.600Z,5.50
2022-08-08T09:12:17.576Z,4.70
2022-08-08T09:14:48.450Z,5.67
2022-08-08T09:17:19.596Z,4.83
2022-08-08T09:21:58.132Z,5.30
2022-08-08T09:22:45.568Z,4.40
2022-08-08T09:25:12.575Z,4.83
2022-08-08T09:27:57.353Z,5.77
2022-08-08T09:30:30.169Z,4.30
2022-08-08T09:33:54.324Z,5.20
2022-08-08T09:35:48.879Z,4.57
2022-08-08T09:38:33.026Z,5.47
2022-08-08T09:41:06.576Z,6.77
2022-08-08T09:44:06.112Z,5.83
2022-08-08T09:46:34.348Z,5.23
2022-08-08T09:49:18.212Z,6.30
2022-08-08T09:52:07.617Z,6.07
2022-08-08T09:54:44.357Z,5.13
2022-08-08T09:57:16.920Z,7.60
2022-08-08T10:00:01.957Z,4.90
2022-08-08T10:02:49.327Z,6.70
2022-08-08T10:05:25.346Z,5.60
2022-08-08T10:07:52.374Z,6.43
2022-08-08T10:10:41.659Z,4.80
2022-08-08T10:13:22.809Z,5.27
2022-08-08T10:15:59.004Z,5.10
2022-08-08T10:18:33.370Z,4.30
2022-08-08T10:21:22.599Z,5.57
2022-08-08T10:23:58.015Z,5.57
2022-08-08T10:26:56.914Z,5.47
2022-08-08T10:29:58.301Z,4.47
2022-08-08T10:32:39.065Z,5.65
2022-08-08T10:36:06.721Z,7.45
2022-08-08T10:38:08.298Z,7.03
2022-08-08T10:40:37.848Z,4.68
2022-08-08T10:43:06.569Z,4.70
2022-08-08T10:45:56.079Z,8.63
2022-08-08T10:48:58.503Z,4.43
2022-08-08T10:51:26.099Z,5.00
2022-08-08T10:53:57.377Z,4.22
2022-08-08T10:56:27.728Z,5.53
2022-08-08T10:59:02.909Z,4.10
2022-08-08T11:01:33.649Z,4.80
2022-08-08T11:04:07.747Z,6.17
2022-08-08T11:06:41.851Z,7.37
2022-08-08T11:09:20.094Z,5.23
2022-08-08T11:12:04.770Z,6.13
2022-08-08T11:14:52.812Z,4.70
2022-08-08T11:17:59.444Z,4.60
2022-08-08T11:20:12.697Z,5.35
2022-08-08T11:22:41.092Z,4.25
2022-08-08T11:25:14.518Z,4.43
2022-08-08T11:27:44.582Z,5.00
2022-08-08T11:30:20.163Z,5.55
2022-08-08T11:32:55.981Z,6.63
2022-08-08T11:35:43.382Z,4.85
2022-08-08T11:38:35.948Z,4.90
2022-08-08T11:41:01.034Z,4.43
2022-08-08T11:43:39.117Z,4.63
2022-08-08T11:46:13.801Z,5.20
2022-08-08T11:48:47.182Z,5.80
2022-08-08T11:51:38.940Z,6.13
2022-08-08T11:54:26.644Z,4.10
2022-08-08T11:56:56.364Z,5.18
2022-08-08T12:00:00.257Z,4.30
2022-08-08T12:02:32.206Z,5.35
2022-08-08T12:05:12.460Z,9.18
2022-08-08T12:07:54.271Z,5.38
2022-08-08T12:10:25.205Z,5.68
2022-08-08T12:13:05.251Z,3.95
2022-08-08T12:15:41.856Z,5.97
2022-08-08T12:18:18.103Z,3.47
2022-08-08T12:20:56.580Z,4.57
2022-08-08T12:23:43.663Z,3.63
2022-08-08T12:26:28.369Z,4.55
2022-08-08T12:29:25.824Z,3.65
2022-08-08T12:32:17.090Z,5.20
2022-08-08T12:35:04.764Z,3.40
2022-08-08T12:38:01.553Z,3.58
2022-08-08T12:40:57.045Z,3.58
2022-08-08T12:43:47.616Z,5.03
2022-08-08T12:46:26.666Z,3.38
2022-08-08T12:49:25.547Z,3.25
2022-08-08T12:51:58.821Z,3.63
2022-08-08T12:54:33.257Z,4.13
2022-08-08T12:57:23.463Z,4.35
2022-08-08T13:00:03.726Z,4.45
2022-08-08T13:02:51.498Z,3.40
2022-08-08T13:05:25.706Z,4.15
2022-08-08T13:08:03.711Z,3.53
2022-08-08T13:10:36.234Z,3.13
2022-08-08T13:13:07.971Z,4.32
2022-08-08T13:15:36.564Z,3.40
2022-08-08T13:18:10.547Z,3.20
2022-08-08T13:20:44.826Z,5.35
2022-08-08T13:23:36.398Z,4.32
2022-08-08T13:26:15.482Z,4.45
2022-08-08T13:28:42.963Z,4.38
2022-08-08T13:31:16.467Z,4.15
2022-08-08T13:33:47.245Z,3.63
2022-08-08T13:36:17.119Z,5.47
2022-08-08T13:38:44.495Z,6.90
2022-08-08T13:41:16.579Z,6.10
2022-08-08T13:43:46.628Z,5.15
2022-08-08T13:46:27.318Z,3.10
2022-08-08T13:49:11.193Z,3.80
2022-08-08T13:51:55.471Z,5.03
2022-08-08T13:54:22.853Z,4.18
2022-08-08T13:57:08.541Z,3.30
2022-08-08T13:59:48.643Z,3.83
2022-08-08T14:02:21.368Z,4.72
2022-08-08T14:05:05.168Z,4.32
2022-08-08T14:07:51.972Z,4.38
2022-08-08T14:10:33.661Z,3.55
2022-08-08T14:13:20.705Z,6.03
2022-08-08T14:16:02.473Z,4.82
2022-08-08T14:18:34.886Z,4.30
2022-08-08T14:21:12.658Z,4.07
2022-08-08T14:24:08.047Z,6.07
2022-08-08T14:26:30.752Z,5.50
2022-08-08T14:29:02.767Z,4.75
2022-08-08T14:32:05.596Z,4.63
2022-08-08T14:34:23.178Z,4.32
2022-08-08T14:36:54.698Z,4.00
2022-08-08T14:39:25.036Z,6.25
2022-08-08T14:42:09.315Z,4.93
2022-08-08T14:44:39.385Z,5.78
2022-08-08T14:47:17.061Z,3.95
2022-08-08T14:50:02.387Z,4.60
2022-08-08T14:53:08.093Z,4.63
2022-08-08T14:55:42.305Z,3.38
2022-08-08T14:58:12.162Z,4.00
2022-08-08T15:00:44.501Z,5.03
2022-08-08T15:03:16.240Z,5.35
2022-08-08T15:05:52.800Z,4.65
2022-08-08T15:08:35.664Z,4.57
2022-08-08T15:11:06.913Z,4.93
2022-08-08T15:13:40.303Z,3.85
2022-08-08T15:16:14.640Z,4.00
2022-08-08T15:18:50.080Z,4.20
2022-08-08T15:21:20.611Z,7.07
2022-08-08T15:23:51.267Z,5.28
2022-08-08T15:26:25.871Z,4.25
2022-08-08T15:28:56.365Z,4.45
2022-08-08T15:31:26.064Z,4.82
2022-08-08T15:34:18.569Z,4.53
2022-08-08T15:36:56.729Z,4.30
2022-08-08T15:39:23.402Z,3.97
2022-08-08T15:41:54.893Z,6.35
2022-08-08T15:44:21.371Z,4.30
2022-08-08T15:46:50.564Z,3.97
2022-08-08T15:49:20.348Z,3.63
2022-08-08T15:51:49.898Z,4.65
2022-08-08T15:54:18.838Z,3.65
2022-08-08T15:57:11.259Z,5.38
2022-08-08T16:00:06.255Z,5.25
2022-08-08T16:02:30.411Z,4.22
2022-08-08T16:05:04.136Z,4.45
2022-08-08T16:07:51.800Z,3.88
2022-08-08T16:13:02.148Z,4.53
2022-08-08T16:13:29.977Z,4.45
2022-08-08T16:15:58.796Z,3.97
2022-08-08T16:18:33.360Z,5.53
2022-08-08T16:21:01.297Z,5.25
2022-08-08T16:23:31.431Z,4.90
2022-08-08T16:26:04.430Z,5.65
2022-08-08T16:28:34.939Z,4.72
2022-08-08T16:31:07.704Z,4.30
2022-08-08T16:33:38.921Z,4.95
2022-08-08T16:36:12.997Z,6.68
2022-08-08T16:38:47.326Z,4.80
2022-08-08T16:41:20.491Z,5.03
2022-08-08T16:43:51.543Z,5.72
2022-08-08T16:46:42.844Z,5.22
2022-08-08T16:49:08.731Z,4.05
2022-08-08T16:55:00.065Z,6.78
2022-08-08T16:55:23.002Z,5.85
2022-08-08T16:57:27.791Z,4.68
2022-08-08T17:00:01.239Z,5.55
2022-08-08T17:02:38.257Z,3.25
2022-08-08T17:05:06.941Z,3.22
2022-08-08T17:07:33.423Z,4.63
2022-08-08T17:10:04.983Z,3.63
2022-08-08T17:12:33.970Z,4.82
2022-08-08T17:15:18.076Z,3.85
2022-08-08T17:18:01.512Z,3.67
2022-08-08T17:20:29.434Z,3.42
2022-08-08T17:22:59.925Z,3.45
2022-08-08T17:25:52.288Z,5.40
2022-08-08T17:28:34.412Z,4.05
2022-08-08T17:31:44.064Z,5.35
2022-08-08T17:34:49.472Z,4.57
2022-08-08T17:37:00.152Z,4.88
2022-08-08T17:40:03.747Z,3.30
2022-08-08T17:42:15.552Z,3.60
2022-08-08T17:44:44.321Z,3.07
2022-08-08T17:47:23.262Z,5.20
2022-08-08T17:49:53.012Z,5.33
2022-08-08T17:52:28.193Z,4.60
2022-08-08T17:54:56.323Z,4.20
2022-08-08T17:57:23.933Z,4.10
2022-08-08T17:59:51.572Z,3.23
2022-08-08T18:02:29.054Z,2.40
2022-08-08T18:04:58.202Z,3.47
2022-08-08T18:08:04.011Z,3.30
2022-08-08T18:10:14.575Z,2.40
2022-08-08T18:12:44.345Z,5.23
2022-08-08T18:15:14.188Z,2.60
2022-08-08T18:18:09.516Z,3.20
2022-08-08T18:20:42.844Z,2.10
2022-08-08T18:23:15.712Z,3.50
2022-08-08T18:25:43.294Z,4.33
2022-08-08T18:28:13.236Z,4.20
2022-08-08T18:30:41.580Z,3.20
2022-08-08T18:33:36.662Z,3.60
2022-08-08T18:36:03.255Z,5.77
2022-08-08T18:38:31.149Z,4.37
2022-08-08T18:40:58.976Z,3.20
2022-08-08T18:43:43.109Z,3.23
2022-08-08T18:46:57.118Z,2.93
2022-08-08T18:48:57.853Z,4.87
2022-08-08T18:51:48.336Z,2.97
2022-08-08T18:54:21.873Z,4.40
2022-08-08T18:56:50.088Z,2.53
2022-08-08T18:59:17.325Z,3.83
2022-08-08T19:02:25.772Z,5.07
2022-08-08T19:04:31.470Z,5.00
2022-08-08T19:07:02.055Z,4.23
2022-08-08T19:09:48.931Z,4.10
2022-08-08T19:12:16.763Z,4.47
2022-08-08T19:14:44.318Z,3.60
2022-08-08T19:17:12.205Z,3.37
2022-08-08T19:20:02.901Z,3.30
2022-08-08T19:22:30.041Z,4.63
2022-08-08T19:25:55.989Z,2.67
2022-08-08T19:27:56.643Z,2.70
2022-08-08T19:30:26.631Z,2.37
2022-08-08T19:32:53.920Z,2.93
2022-08-08T19:35:25.516Z,3.20
2022-08-08T19:38:11.003Z,4.93
2022-08-08T19:40:37.793Z,3.03
2022-08-08T19:43:11.628Z,3.47
2022-08-08T19:45:58.626Z,3.00
2022-08-08T19:48:29.370Z,2.73
2022-08-08T19:50:59.148Z,2.00
2022-08-08T19:53:53.501Z,2.40
2022-08-08T19:56:13.970Z,4.20
2022-08-08T19:58:43.584Z,4.97
2022-08-08T20:01:22.703Z,3.43
2022-08-08T20:04:01.243Z,3.07
2022-08-08T20:06:29.159Z,3.20
2022-08-08T20:08:56.660Z,5.00
2022-08-08T20:11:23.689Z,2.40
2022-08-08T20:14:12.410Z,1.97
2022-08-08T20:16:40.831Z,4.53
2022-08-08T20:19:09.141Z,2.97
2022-08-08T20:21:37.976Z,2.87
2022-08-08T20:24:06.222Z,3.37
2022-08-08T20:26:35.524Z,2.67
2022-08-08T20:29:06.471Z,6.47
2022-08-08T20:32:02.809Z,2.73
2022-08-08T20:34:30.104Z,3.80
2022-08-08T20:37:03.304Z,3.50
2022-08-08T20:39:34.005Z,2.20
2022-08-08T20:42:28.785Z,2.57
2022-08-08T20:44:56.841Z,4.23
2022-08-08T20:47:24.047Z,3.23
2022-08-08T20:49:54.331Z,4.47
2022-08-08T20:52:24.085Z,2.87
2022-08-08T20:54:50.860Z,3.63
2022-08-08T20:57:20.864Z,3.93
2022-08-08T20:59:48.239Z,3.60
2022-08-08T21:02:25.830Z,4.13
2022-08-08T21:05:01.016Z,4.37
2022-08-08T21:07:47.030Z,3.30
2022-08-08T21:10:15.382Z,2.90
2022-08-08T21:12:44.644Z,2.70
2022-08-08T21:15:16.528Z,3.67
2022-08-08T21:18:00.029Z,4.33
2022-08-08T21:20:34.065Z,3.23
2022-08-08T21:23:08.904Z,7.60
2022-08-08T21:25:36.647Z,3.73
2022-08-08T21:28:14.433Z,3.83
2022-08-08T21:30:52.179Z,5.30
2022-08-08T21:33:22.717Z,4.10
2022-08-08T21:36:14.697Z,3.63
2022-08-08T21:38:36.183Z,3.57
2022-08-08T21:41:02.621Z,3.30
2022-08-08T21:43:34.388Z,2.90
2022-08-08T21:48:04.479Z,3.67
2022-08-08T21:48:54.213Z,2.83
2022-08-08T21:52:38.928Z,4.03
2022-08-08T21:54:53.492Z,3.40
2022-08-08T21:57:04.544Z,3.97
2022-08-08T22:00:01.803Z,2.73
2022-08-08T22:02:19.639Z,3.27
2022-08-08T22:04:58.928Z,3.87
2022-08-08T22:07:34.829Z,4.13
2022-08-08T22:10:09.703Z,3.83
2022-08-08T22:12:38.733Z,3.13
2022-08-08T22:15:07.218Z,4.60
2022-08-08T22:17:45.005Z,3.53
2022-08-08T22:20:23.393Z,3.00
2022-08-08T22:22:52.552Z,4.83
2022-08-08T22:25:24.723Z,3.50
2022-08-08T22:28:02.693Z,2.70
2022-08-08T22:30:32.445Z,2.80
2022-08-08T22:33:00.658Z,4.63
2022-08-08T22:35:27.427Z,3.83
2022-08-08T22:38:14.337Z,2.83
2022-08-08T22:40:45.104Z,5.37
2022-08-08T22:43:15.525Z,3.83
2022-08-08T22:45:46.697Z,3.67
2022-08-08T22:48:19.572Z,4.53
2022-08-08T22:50:51.110Z,3.53
2022-08-08T22:54:27.960Z,3.13
2022-08-08T22:56:05.218Z,5.77
2022-08-08T22:58:34.670Z,3.33
2022-08-08T23:02:01.013Z,4.90
2022-08-08T23:03:55.170Z,6.33
2022-08-08T23:06:26.029Z,3.77
2022-08-08T23:08:55.836Z,4.37
2022-08-08T23:11:30.745Z,4.80
2022-08-08T23:14:14.745Z,3.97
2022-08-08T23:16:43.851Z,4.97
2022-08-08T23:19:11.207Z,3.90
2022-08-08T23:21:38.745Z,4.87
2022-08-08T23:24:06.698Z,4.30
2022-08-08T23:26:33.947Z,5.17
2022-08-08T23:29:00.984Z,3.40
2022-08-08T23:31:27.445Z,5.80
2022-08-08T23:34:16.610Z,3.77
2022-08-08T23:36:40.815Z,4.87
2022-08-08T23:39:07.553Z,5.10
2022-08-08T23:41:47.020Z,3.73
2022-08-08T23:44:18.706Z,5.23
2022-08-08T23:49:04.178Z,3.70
2022-08-08T23:49:33.987Z,4.40
2022-08-08T23:52:05.860Z,3.50
2022-08-08T23:54:42.440Z,5.47
2022-08-08T23:57:26.287Z,4.00
